UAL4547 KOMA-KSAN
Flight info
| Callsign | UAL4547 |
|---|---|
| Flight time | N/A |
| Altitude | 38000 |
| Route | LNK HSI BRK KD45S NAVJO TBC PLNDL Q86 TTRUE LUCKI1 |
| Aircraft | A20N/M-SDE2E3FGHIRWXY/LB1 |
Departure
| Time | 2026-04-30 00:16 |
|---|---|
| Airport | Eppley Airfield (KOMA) |
Arrival
| Time | N/A |
|---|---|
| Airport | San Diego International Airport (KSAN) |
| Time | Latitude | Longitude | Altitude | Speed | Heading |
|---|---|---|---|---|---|
| 2026-04-29 23:57 | 41.30139 | -95.89792 | 987 ft | 0 kts | 267° |
| 2026-04-30 00:05 | 41.30139 | -95.89794 | 985 ft | 1 kts | 267° |
| 2026-04-30 00:05 | 41.30138 | -95.89801 | 985 ft | 1 kts | 267° |
| 2026-04-30 00:05 | 41.30139 | -95.89785 | 991 ft | 0 kts | 267° |
| 2026-04-30 00:06 | 41.30140 | -95.89767 | 984 ft | 0 kts | 266° |
| 2026-04-30 00:06 | 41.30140 | -95.89762 | 984 ft | 4 kts | 249° |
| 2026-04-30 00:06 | 41.30153 | -95.89736 | 985 ft | 3 kts | 240° |
| 2026-04-30 00:06 | 41.30151 | -95.89712 | 986 ft | 1 kts | 345° |
| 2026-04-30 00:07 | 41.30153 | -95.89715 | 986 ft | 0 kts | 327° |
| 2026-04-30 00:08 | 41.30215 | -95.89783 | 985 ft | 0 kts | 310° |
| 2026-04-30 00:09 | 41.30216 | -95.89784 | 985 ft | 3 kts | 310° |
| 2026-04-30 00:09 | 41.30254 | -95.89829 | 991 ft | 11 kts | 331° |
| 2026-04-30 00:09 | 41.30302 | -95.89813 | 989 ft | 8 kts | 57° |
| 2026-04-30 00:10 | 41.30286 | -95.89749 | 991 ft | 9 kts | 135° |
| 2026-04-30 00:10 | 41.30228 | -95.89688 | 988 ft | 13 kts | 143° |
| 2026-04-30 00:10 | 41.30135 | -95.89613 | 985 ft | 19 kts | 158° |
| 2026-04-30 00:10 | 41.29998 | -95.89606 | 986 ft | 21 kts | 180° |
| 2026-04-30 00:11 | 41.29847 | -95.89607 | 988 ft | 22 kts | 180° |
| 2026-04-30 00:11 | 41.29680 | -95.89608 | 989 ft | 25 kts | 180° |
| 2026-04-30 00:11 | 41.29502 | -95.89608 | 989 ft | 26 kts | 180° |
| 2026-04-30 00:11 | 41.29310 | -95.89607 | 991 ft | 29 kts | 180° |
| 2026-04-30 00:12 | 41.29133 | -95.89585 | 992 ft | 21 kts | 144° |
| 2026-04-30 00:12 | 41.29109 | -95.89460 | 985 ft | 14 kts | 89° |
| 2026-04-30 00:12 | 41.29108 | -95.89317 | 986 ft | 17 kts | 91° |
| 2026-04-30 00:12 | 41.29108 | -95.89160 | 987 ft | 18 kts | 89° |
| 2026-04-30 00:13 | 41.29110 | -95.88985 | 985 ft | 21 kts | 87° |
| 2026-04-30 00:13 | 41.29164 | -95.88806 | 988 ft | 22 kts | 57° |
| 2026-04-30 00:13 | 41.29217 | -95.88704 | 987 ft | 2 kts | 52° |
| 2026-04-30 00:13 | 41.29359 | -95.88648 | 984 ft | 27 kts | 333° |
| 2026-04-30 00:14 | 41.29431 | -95.88752 | 986 ft | 0 kts | 326° |
| 2026-04-30 00:15 | 41.29570 | -95.88882 | 991 ft | 67 kts | 324° |
| 2026-04-30 00:16 | 41.30181 | -95.89470 | 985 ft | 145 kts | 323° |
| 2026-04-30 00:16 | 41.31131 | -95.90375 | 1323 ft | 179 kts | 325° |
| 2026-04-30 00:16 | 41.32149 | -95.91336 | 2354 ft | 180 kts | 325° |
| 2026-04-30 00:16 | 41.33194 | -95.92293 | 3404 ft | 187 kts | 325° |
| 2026-04-30 00:17 | 41.34304 | -95.93293 | 4277 ft | 202 kts | 325° |
| 2026-04-30 00:17 | 41.35511 | -95.94370 | 5224 ft | 220 kts | 325° |
| 2026-04-30 00:17 | 41.36747 | -95.95823 | 5596 ft | 260 kts | 306° |
| 2026-04-30 00:17 | 41.37557 | -95.98243 | 5313 ft | 317 kts | 282° |
| 2026-04-30 00:18 | 41.37576 | -96.01385 | 5004 ft | 359 kts | 259° |
| 2026-04-30 00:18 | 41.36700 | -96.04433 | 4987 ft | 345 kts | 239° |
| 2026-04-30 00:18 | 41.35329 | -96.06936 | 4983 ft | 324 kts | 233° |
| 2026-04-30 00:18 | 41.34038 | -96.09272 | 4987 ft | 304 kts | 237° |
| 2026-04-30 00:19 | 41.32970 | -96.11596 | 4985 ft | 285 kts | 242° |
| 2026-04-30 00:19 | 41.32106 | -96.13873 | 5037 ft | 266 kts | 246° |
| 2026-04-30 00:19 | 41.31381 | -96.16063 | 5296 ft | 262 kts | 248° |
| 2026-04-30 00:19 | 41.30687 | -96.18315 | 5603 ft | 263 kts | 249° |
| 2026-04-30 00:20 | 41.30010 | -96.20571 | 5913 ft | 263 kts | 249° |
| 2026-04-30 00:20 | 41.29334 | -96.22842 | 6217 ft | 265 kts | 249° |
| 2026-04-30 00:20 | 41.28652 | -96.25128 | 6535 ft | 266 kts | 249° |
| 2026-04-30 00:20 | 41.27968 | -96.27411 | 6828 ft | 267 kts | 249° |
| 2026-04-30 00:21 | 41.27276 | -96.29712 | 7124 ft | 268 kts | 250° |
| 2026-04-30 00:21 | 41.26585 | -96.32007 | 7428 ft | 268 kts | 250° |
| 2026-04-30 00:21 | 41.25891 | -96.34308 | 7733 ft | 268 kts | 250° |
| 2026-04-30 00:21 | 41.25196 | -96.36611 | 8047 ft | 269 kts | 251° |
| 2026-04-30 00:22 | 41.24497 | -96.38923 | 8346 ft | 270 kts | 251° |
| 2026-04-30 00:22 | 41.23797 | -96.41237 | 8664 ft | 270 kts | 251° |
| 2026-04-30 00:22 | 41.23094 | -96.43558 | 8979 ft | 271 kts | 252° |
| 2026-04-30 00:22 | 41.22390 | -96.45880 | 9302 ft | 271 kts | 252° |
| 2026-04-30 00:23 | 41.21683 | -96.48211 | 9607 ft | 273 kts | 252° |
| 2026-04-30 00:23 | 41.20972 | -96.50552 | 9931 ft | 273 kts | 252° |
| 2026-04-30 00:23 | 41.20251 | -96.52930 | 10241 ft | 288 kts | 252° |
| 2026-04-30 00:23 | 41.19476 | -96.55509 | 10550 ft | 312 kts | 252° |
| 2026-04-30 00:24 | 41.18650 | -96.58230 | 10845 ft | 319 kts | 252° |
| 2026-04-30 00:24 | 41.17825 | -96.60925 | 11136 ft | 320 kts | 252° |
| 2026-04-30 00:24 | 41.16987 | -96.63658 | 11447 ft | 320 kts | 252° |
| 2026-04-30 00:24 | 41.16148 | -96.66401 | 11754 ft | 321 kts | 253° |
| 2026-04-30 00:25 | 41.15306 | -96.69149 | 12053 ft | 321 kts | 253° |
| 2026-04-30 00:25 | 41.14464 | -96.71901 | 12363 ft | 322 kts | 253° |
| 2026-04-30 00:25 | 41.13621 | -96.74654 | 12678 ft | 323 kts | 253° |
| 2026-04-30 00:25 | 41.12775 | -96.77418 | 12994 ft | 323 kts | 253° |
| 2026-04-30 00:26 | 41.11927 | -96.80184 | 13310 ft | 324 kts | 253° |
| 2026-04-30 00:26 | 41.11076 | -96.82956 | 13643 ft | 324 kts | 253° |
| 2026-04-30 00:26 | 41.10224 | -96.85733 | 13955 ft | 328 kts | 253° |
| 2026-04-30 00:26 | 41.09361 | -96.88544 | 14252 ft | 329 kts | 253° |
| 2026-04-30 00:27 | 41.08495 | -96.91356 | 14544 ft | 330 kts | 253° |
| 2026-04-30 00:27 | 41.07624 | -96.94177 | 14838 ft | 331 kts | 253° |
| 2026-04-30 00:27 | 41.07035 | -96.96085 | 15036 ft | 331 kts | 253° |
| 2026-04-30 00:27 | 41.05877 | -96.99834 | 15434 ft | 333 kts | 253° |
| 2026-04-30 00:28 | 41.04999 | -97.02676 | 15732 ft | 334 kts | 253° |
| 2026-04-30 00:28 | 41.04117 | -97.05527 | 16040 ft | 335 kts | 253° |
| 2026-04-30 00:28 | 41.03231 | -97.08387 | 16348 ft | 336 kts | 253° |
| 2026-04-30 00:28 | 41.02643 | -97.10285 | 16554 ft | 337 kts | 253° |
| 2026-04-30 00:29 | 41.01751 | -97.13159 | 16866 ft | 338 kts | 253° |
| 2026-04-30 00:29 | 41.00857 | -97.16039 | 17186 ft | 339 kts | 253° |
| 2026-04-30 00:29 | 40.99957 | -97.18932 | 17510 ft | 340 kts | 253° |
| 2026-04-30 00:29 | 40.99054 | -97.21834 | 17831 ft | 341 kts | 253° |
| 2026-04-30 00:30 | 40.98147 | -97.24745 | 18154 ft | 343 kts | 253° |
| 2026-04-30 00:30 | 40.97235 | -97.27667 | 18476 ft | 344 kts | 253° |
| 2026-04-30 00:30 | 40.96320 | -97.30596 | 18757 ft | 345 kts | 253° |
| 2026-04-30 00:30 | 40.95401 | -97.33533 | 19042 ft | 346 kts | 253° |
| 2026-04-30 00:31 | 40.94479 | -97.36477 | 19330 ft | 347 kts | 252° |
| 2026-04-30 00:31 | 40.93554 | -97.39431 | 19628 ft | 349 kts | 252° |
| 2026-04-30 00:31 | 40.92624 | -97.42396 | 19920 ft | 350 kts | 252° |
| 2026-04-30 00:31 | 40.91690 | -97.45367 | 20215 ft | 351 kts | 252° |
| 2026-04-30 00:32 | 40.90752 | -97.48349 | 20514 ft | 352 kts | 252° |
| 2026-04-30 00:32 | 40.89811 | -97.51338 | 20787 ft | 353 kts | 252° |
| 2026-04-30 00:32 | 40.88865 | -97.54340 | 21093 ft | 354 kts | 252° |
| 2026-04-30 00:32 | 40.87916 | -97.57348 | 21383 ft | 355 kts | 252° |
| 2026-04-30 00:33 | 40.86965 | -97.60360 | 21681 ft | 355 kts | 252° |
| 2026-04-30 00:33 | 40.86011 | -97.63374 | 21998 ft | 357 kts | 252° |
| 2026-04-30 00:33 | 40.85052 | -97.66406 | 22315 ft | 359 kts | 252° |
| 2026-04-30 00:33 | 40.84088 | -97.69450 | 22638 ft | 360 kts | 252° |
| 2026-04-30 00:34 | 40.83117 | -97.72507 | 22963 ft | 362 kts | 252° |
| 2026-04-30 00:34 | 40.82140 | -97.75575 | 23293 ft | 364 kts | 252° |
| 2026-04-30 00:34 | 40.81157 | -97.78655 | 23621 ft | 365 kts | 252° |
| 2026-04-30 00:34 | 40.80165 | -97.81752 | 23921 ft | 367 kts | 252° |
| 2026-04-30 00:35 | 40.79168 | -97.84856 | 24190 ft | 368 kts | 252° |
| 2026-04-30 00:35 | 40.78164 | -97.87976 | 24461 ft | 370 kts | 252° |
| 2026-04-30 00:35 | 40.77154 | -97.91102 | 24752 ft | 371 kts | 251° |
| 2026-04-30 00:35 | 40.76137 | -97.94239 | 25034 ft | 373 kts | 251° |
| 2026-04-30 00:36 | 40.75113 | -97.97394 | 25308 ft | 375 kts | 251° |
| 2026-04-30 00:36 | 40.74081 | -98.00563 | 25595 ft | 377 kts | 251° |
| 2026-04-30 00:36 | 40.73042 | -98.03745 | 25882 ft | 378 kts | 251° |
| 2026-04-30 00:36 | 40.71997 | -98.06933 | 26178 ft | 380 kts | 251° |
| 2026-04-30 00:37 | 40.70945 | -98.10139 | 26466 ft | 382 kts | 251° |
| 2026-04-30 00:37 | 40.69885 | -98.13358 | 26761 ft | 384 kts | 251° |
| 2026-04-30 00:37 | 40.68818 | -98.16589 | 27052 ft | 385 kts | 251° |
| 2026-04-30 00:37 | 40.67750 | -98.19832 | 27359 ft | 387 kts | 251° |
| 2026-04-30 00:38 | 40.66725 | -98.23116 | 27669 ft | 388 kts | 252° |
| 2026-04-30 00:38 | 40.65729 | -98.26422 | 27985 ft | 390 kts | 252° |
| 2026-04-30 00:38 | 40.64708 | -98.29742 | 28307 ft | 392 kts | 252° |
| 2026-04-30 00:38 | 40.63658 | -98.33068 | 28633 ft | 394 kts | 251° |
| 2026-04-30 00:39 | 40.62587 | -98.36405 | 28930 ft | 398 kts | 251° |
| 2026-04-30 00:39 | 40.61499 | -98.39764 | 29263 ft | 401 kts | 251° |
| 2026-04-30 00:39 | 40.60421 | -98.43160 | 29605 ft | 402 kts | 254° |
| 2026-04-30 00:39 | 40.59554 | -98.46659 | 29939 ft | 403 kts | 257° |
| 2026-04-30 00:40 | 40.58722 | -98.50198 | 30268 ft | 407 kts | 257° |
| 2026-04-30 00:40 | 40.57887 | -98.53758 | 30558 ft | 408 kts | 257° |
| 2026-04-30 00:40 | 40.57049 | -98.57327 | 30852 ft | 409 kts | 257° |
| 2026-04-30 00:40 | 40.56208 | -98.60897 | 31146 ft | 409 kts | 257° |
| 2026-04-30 00:41 | 40.55364 | -98.64468 | 31444 ft | 408 kts | 257° |
| 2026-04-30 00:41 | 40.54535 | -98.67971 | 31744 ft | 406 kts | 257° |
| 2026-04-30 00:41 | 40.53696 | -98.71508 | 32046 ft | 405 kts | 257° |
| 2026-04-30 00:41 | 40.52862 | -98.75029 | 32333 ft | 403 kts | 257° |
| 2026-04-30 00:42 | 40.52030 | -98.78536 | 32647 ft | 401 kts | 257° |
| 2026-04-30 00:42 | 40.51196 | -98.82027 | 32961 ft | 400 kts | 257° |
| 2026-04-30 00:42 | 40.50364 | -98.85506 | 33278 ft | 398 kts | 257° |
| 2026-04-30 00:42 | 40.49536 | -98.88961 | 33601 ft | 396 kts | 257° |
| 2026-04-30 00:43 | 40.48709 | -98.92409 | 33929 ft | 394 kts | 257° |
| 2026-04-30 00:43 | 40.47886 | -98.95833 | 34232 ft | 393 kts | 257° |
| 2026-04-30 00:43 | 40.47064 | -98.99251 | 34508 ft | 392 kts | 257° |
| 2026-04-30 00:43 | 40.46242 | -99.02664 | 34787 ft | 392 kts | 257° |
| 2026-04-30 00:44 | 40.45420 | -99.06074 | 35064 ft | 391 kts | 257° |
| 2026-04-30 00:44 | 40.44599 | -99.09474 | 35336 ft | 391 kts | 257° |
| 2026-04-30 00:44 | 40.43778 | -99.12865 | 35623 ft | 389 kts | 257° |
| 2026-04-30 00:44 | 40.42958 | -99.16249 | 35910 ft | 388 kts | 257° |
| 2026-04-30 00:45 | 40.42140 | -99.19619 | 36205 ft | 387 kts | 257° |
| 2026-04-30 00:45 | 40.41323 | -99.22982 | 36502 ft | 386 kts | 257° |
| 2026-04-30 00:45 | 40.40510 | -99.26326 | 36803 ft | 384 kts | 257° |
| 2026-04-30 00:45 | 40.39698 | -99.29659 | 37104 ft | 383 kts | 257° |
| 2026-04-30 00:46 | 40.38888 | -99.32978 | 37426 ft | 381 kts | 256° |
| 2026-04-30 00:46 | 40.38084 | -99.36267 | 37734 ft | 378 kts | 256° |
| 2026-04-30 00:46 | 40.37282 | -99.39546 | 38042 ft | 377 kts | 256° |
| 2026-04-30 00:47 | 40.35669 | -99.46137 | 38135 ft | 384 kts | 256° |
| 2026-04-30 00:47 | 40.34020 | -99.52849 | 38135 ft | 387 kts | 256° |
| 2026-04-30 00:48 | 40.32368 | -99.59539 | 38135 ft | 386 kts | 256° |
| 2026-04-30 00:48 | 40.31541 | -99.62886 | 37977 ft | 387 kts | 256° |
| 2026-04-30 00:48 | 40.30712 | -99.66234 | 37711 ft | 386 kts | 256° |
| 2026-04-30 00:48 | 40.29884 | -99.69573 | 37448 ft | 385 kts | 256° |
| 2026-04-30 00:49 | 40.29055 | -99.72910 | 37191 ft | 386 kts | 256° |
| 2026-04-30 00:49 | 40.28226 | -99.76247 | 36928 ft | 386 kts | 256° |
| 2026-04-30 00:49 | 40.27404 | -99.79551 | 36675 ft | 386 kts | 256° |
| 2026-04-30 00:49 | 40.26560 | -99.82937 | 36408 ft | 386 kts | 256° |
| 2026-04-30 00:50 | 40.25737 | -99.86232 | 36182 ft | 385 kts | 257° |
| 2026-04-30 00:50 | 40.24907 | -99.89549 | 35937 ft | 383 kts | 257° |
| 2026-04-30 00:50 | 40.24077 | -99.92866 | 35687 ft | 384 kts | 257° |
| 2026-04-30 00:50 | 40.23246 | -99.96186 | 35447 ft | 384 kts | 257° |
| 2026-04-30 00:51 | 40.22412 | -99.99510 | 35307 ft | 384 kts | 257° |
| 2026-04-30 00:51 | 40.20742 | -100.06151 | 35504 ft | 386 kts | 257° |
| 2026-04-30 00:51 | 40.19902 | -100.09483 | 35617 ft | 385 kts | 257° |
| 2026-04-30 00:52 | 40.19063 | -100.12809 | 35744 ft | 386 kts | 257° |
| 2026-04-30 00:52 | 40.18221 | -100.16141 | 35867 ft | 385 kts | 257° |
| 2026-04-30 00:52 | 40.17380 | -100.19464 | 35990 ft | 386 kts | 257° |
| 2026-04-30 00:52 | 40.16537 | -100.22787 | 36100 ft | 383 kts | 257° |
| 2026-04-30 00:53 | 40.15701 | -100.26081 | 36229 ft | 382 kts | 257° |
| 2026-04-30 00:53 | 40.14865 | -100.29369 | 36355 ft | 382 kts | 257° |
| 2026-04-30 00:53 | 40.14026 | -100.32669 | 36499 ft | 382 kts | 257° |
| 2026-04-30 00:53 | 40.13188 | -100.35960 | 36622 ft | 382 kts | 256° |
| 2026-04-30 00:54 | 40.12347 | -100.39256 | 36742 ft | 382 kts | 256° |
| 2026-04-30 00:54 | 40.11504 | -100.42557 | 36886 ft | 382 kts | 256° |
| 2026-04-30 00:54 | 40.10662 | -100.45847 | 36999 ft | 382 kts | 256° |
| 2026-04-30 00:54 | 40.09821 | -100.49132 | 37129 ft | 382 kts | 256° |
| 2026-04-30 00:55 | 40.08975 | -100.52428 | 37252 ft | 382 kts | 257° |
| 2026-04-30 00:55 | 40.08136 | -100.55715 | 37376 ft | 382 kts | 256° |
| 2026-04-30 00:55 | 40.06449 | -100.62264 | 37640 ft | 379 kts | 256° |
| 2026-04-30 00:56 | 40.05607 | -100.65520 | 37774 ft | 380 kts | 256° |
| 2026-04-30 00:56 | 40.04763 | -100.68784 | 37908 ft | 380 kts | 256° |
| 2026-04-30 00:56 | 40.03919 | -100.72048 | 38040 ft | 380 kts | 256° |
| 2026-04-30 00:56 | 40.03074 | -100.75309 | 38145 ft | 379 kts | 256° |
| 2026-04-30 00:57 | 40.01384 | -100.81825 | 38184 ft | 379 kts | 256° |
| 2026-04-30 00:57 | 39.99688 | -100.88343 | 38189 ft | 379 kts | 256° |
| 2026-04-30 00:58 | 39.97991 | -100.94851 | 38198 ft | 379 kts | 256° |
| 2026-04-30 00:58 | 39.96292 | -101.01346 | 38205 ft | 379 kts | 256° |
| 2026-04-30 00:59 | 39.94589 | -101.07842 | 38205 ft | 379 kts | 256° |
| 2026-04-30 00:59 | 39.92886 | -101.14320 | 38218 ft | 377 kts | 256° |
| 2026-04-30 01:00 | 39.91185 | -101.20777 | 38211 ft | 377 kts | 256° |
| 2026-04-30 01:00 | 39.89481 | -101.27225 | 38157 ft | 376 kts | 256° |
| 2026-04-30 01:01 | 39.87777 | -101.33653 | 38152 ft | 375 kts | 256° |
| 2026-04-30 01:01 | 39.86075 | -101.40063 | 38146 ft | 374 kts | 256° |
| 2026-04-30 01:02 | 39.84372 | -101.46456 | 38144 ft | 374 kts | 255° |
| 2026-04-30 01:02 | 39.82667 | -101.52841 | 38144 ft | 373 kts | 255° |
| 2026-04-30 01:03 | 39.80962 | -101.59212 | 38138 ft | 373 kts | 255° |
| 2026-04-30 01:03 | 39.79256 | -101.65571 | 38139 ft | 372 kts | 255° |
| 2026-04-30 01:04 | 39.77547 | -101.71924 | 38150 ft | 372 kts | 255° |
| 2026-04-30 01:04 | 39.75838 | -101.78261 | 38145 ft | 372 kts | 255° |
| 2026-04-30 01:05 | 39.74125 | -101.84595 | 38138 ft | 372 kts | 255° |
| 2026-04-30 01:05 | 39.72408 | -101.90929 | 38146 ft | 371 kts | 255° |
| 2026-04-30 01:06 | 39.70690 | -101.97251 | 38132 ft | 371 kts | 255° |
| 2026-04-30 01:06 | 39.68981 | -102.03524 | 38129 ft | 371 kts | 255° |
| 2026-04-30 01:07 | 39.67258 | -102.09835 | 38131 ft | 371 kts | 255° |
| 2026-04-30 01:07 | 39.65532 | -102.16139 | 38124 ft | 371 kts | 255° |